Time;durP1;ratioP1;P1;durP2;ratioP2;P2;SDS_P1;SDS_P2;PMS_P1;PMS_P2;Temp;Humidity;BMP_temperature;BMP_pressure;BME280_temperature;BME280_humidity;BME280_pressure;Samples;Min_cycle;Max_cycle;Signal;HPM_P1;HPM_P2
2022/05/10 00:01:48;;;;;;;6.73;5.53;;;16.00;99.90;;;;;;5134052;27;20223;-61
2022/05/10 00:04:14;;;;;;;6.80;5.60;;;16.00;99.90;;;;;;5134288;27;20284;-60
2022/05/10 00:06:45;;;;;;;6.87;5.63;;;15.90;99.90;;;;;;5133812;27;20342;-60
2022/05/10 00:09:13;;;;;;;5.87;5.23;;;15.80;99.90;;;;;;5134214;27;20267;-61
2022/05/10 00:11:40;;;;;;;6.30;5.70;;;15.90;99.90;;;;;;5133695;27;20230;-60
2022/05/10 00:14:07;;;;;;;6.93;5.70;;;15.70;99.90;;;;;;5133684;27;20206;-61
2022/05/10 00:16:38;;;;;;;6.23;5.60;;;15.70;99.90;;;;;;5133540;27;20203;-61
2022/05/10 00:19:08;;;;;;;6.03;5.43;;;15.70;99.90;;;;;;5133519;27;20278;-60
2022/05/10 00:21:35;;;;;;;7.20;5.53;;;15.70;99.90;;;;;;5133669;27;20373;-60
2022/05/10 00:24:02;;;;;;;9.80;5.77;;;15.70;99.90;;;;;;5133763;27;20559;-59
2022/05/10 00:26:29;;;;;;;6.10;5.20;;;15.70;99.90;;;;;;5133185;27;20559;-60
2022/05/10 00:28:55;;;;;;;6.03;5.43;;;15.70;99.90;;;;;;5133613;27;20195;-61
2022/05/10 00:31:22;;;;;;;6.77;5.50;;;15.60;99.90;;;;;;5133573;27;20299;-60
2022/05/10 00:33:49;;;;;;;6.63;5.53;;;15.70;99.90;;;;;;5133676;27;20203;-61
2022/05/10 00:36:19;;;;;;;6.93;5.47;;;15.60;99.90;;;;;;5133235;27;20199;-60
2022/05/10 00:38:46;;;;;;;7.83;6.07;;;15.60;99.90;;;;;;5133557;27;20272;-60
2022/05/10 00:41:20;;;;;;;7.50;6.13;;;15.60;99.90;;;;;;5133236;27;20287;-60
2022/05/10 00:43:50;;;;;;;7.23;5.33;;;15.60;99.90;;;;;;5133247;27;20560;-58
2022/05/10 00:46:22;;;;;;;6.37;5.57;;;15.70;99.90;;;;;;5133109;27;20210;-61
2022/05/10 00:48:52;;;;;;;6.53;5.93;;;15.70;99.90;;;;;;5133314;27;20195;-57
2022/05/10 00:51:25;;;;;;;6.83;5.50;;;15.70;99.90;;;;;;5133262;27;20223;-58
2022/05/10 00:54:01;;;;;;;6.63;5.40;;;15.70;99.90;;;;;;5133054;27;20210;-60
2022/05/10 00:56:34;;;;;;;7.37;5.43;;;15.70;99.90;;;;;;5132835;27;20293;-59
2022/05/10 00:59:09;;;;;;;7.67;5.63;;;15.70;99.90;;;;;;5133191;27;20636;-60
2022/05/10 01:01:37;;;;;;;7.73;5.50;;;15.70;99.90;;;;;;5132975;27;20700;-58
2022/05/10 01:04:14;;;;;;;6.77;5.60;;;15.80;99.90;;;;;;5132887;27;20207;-60
2022/05/10 01:06:49;;;;;;;10.13;6.07;;;15.70;99.90;;;;;;5132628;27;20225;-61
2022/05/10 01:09:25;;;;;;;7.50;5.10;;;15.80;99.90;;;;;;5132953;27;20617;-60
2022/05/10 01:11:58;;;;;;;7.97;5.90;;;15.80;99.90;;;;;;5132990;27;20233;-60
2022/05/10 01:14:31;;;;;;;6.77;5.03;;;15.70;99.90;;;;;;5132988;27;20287;-61
2022/05/10 01:16:58;;;;;;;13.13;6.50;;;15.70;99.90;;;;;;5132528;27;20210;-61
2022/05/10 01:19:25;;;;;;;6.83;5.37;;;15.70;99.90;;;;;;5133045;27;20268;-60
2022/05/10 01:22:05;;;;;;;6.37;5.33;;;15.70;99.90;;;;;;5132789;27;20275;-59
2022/05/10 01:24:50;;;;;;;8.33;5.60;;;15.70;99.90;;;;;;5132745;27;20206;-58
2022/05/10 01:27:34;;;;;;;6.83;5.40;;;15.70;99.90;;;;;;5132223;27;20572;-61
2022/05/10 01:30:06;;;;;;;6.03;5.43;;;15.60;99.90;;;;;;5132823;27;20687;-60
2022/05/10 01:35:28;;;;;;;7.37;6.00;;;15.70;99.90;;;;;;5136841;27;20193;-61
2022/05/10 01:38:00;;;;;;;6.13;5.53;;;15.70;99.90;;;;;;5136498;27;20210;-61
2022/05/10 01:40:32;;;;;;;6.97;4.93;;;15.70;99.90;;;;;;5137287;27;20283;-60
2022/05/10 01:43:06;;;;;;;6.43;5.00;;;15.70;99.90;;;;;;5137172;27;20549;-61
2022/05/10 01:45:40;;;;;;;6.33;5.20;;;15.70;99.90;;;;;;5136970;27;20206;-61
2022/05/10 01:48:11;;;;;;;8.33;5.20;;;15.70;99.90;;;;;;5136463;27;20207;-61
2022/05/10 01:50:42;;;;;;;6.27;5.53;;;15.70;99.90;;;;;;5136498;27;20766;-59
2022/05/10 01:53:12;;;;;;;6.87;5.57;;;15.70;99.90;;;;;;5137008;27;20257;-58
2022/05/10 01:55:41;;;;;;;7.27;5.63;;;15.70;99.90;;;;;;5136354;27;20684;-59
2022/05/10 01:58:11;;;;;;;5.90;5.03;;;15.70;99.90;;;;;;5136491;27;20290;-59
2022/05/10 02:00:40;;;;;;;5.40;4.87;;;15.60;99.90;;;;;;5136439;27;20234;-60
2022/05/10 02:03:13;;;;;;;6.30;5.67;;;15.60;99.90;;;;;;5136849;27;20210;-60
2022/05/10 02:05:48;;;;;;;5.97;5.27;;;15.50;99.90;;;;;;5136371;27;20214;-58
2022/05/10 02:08:22;;;;;;;5.60;5.10;;;15.50;99.90;;;;;;5136245;27;20266;-60
2022/05/10 02:10:52;;;;;;;6.47;5.83;;;15.50;99.90;;;;;;5136223;27;20658;-59
2022/05/10 02:13:25;;;;;;;7.47;5.87;;;15.50;99.90;;;;;;5135963;27;20203;-58
2022/05/10 02:15:58;;;;;;;7.07;5.53;;;15.40;99.90;;;;;;5136245;27;20237;-59
2022/05/10 02:18:31;;;;;;;6.13;5.13;;;15.40;99.90;;;;;;5136105;27;20799;-58
2022/05/10 02:21:05;;;;;;;7.50;5.60;;;15.40;99.90;;;;;;5136130;27;20617;-60
2022/05/10 02:23:38;;;;;;;9.47;6.30;;;15.40;99.90;;;;;;5135952;27;20207;-59
2022/05/10 02:26:11;;;;;;;8.33;6.27;;;15.40;99.90;;;;;;5135806;27;20211;-59
2022/05/10 02:28:43;;;;;;;10.77;5.00;;;15.40;99.90;;;;;;5135879;27;20203;-58
2022/05/10 02:31:16;;;;;;;5.83;5.17;;;15.40;99.90;;;;;;5135923;27;20750;-60
2022/05/10 02:33:46;;;;;;;5.63;5.10;;;15.40;99.90;;;;;;5135911;27;20693;-59
2022/05/10 02:36:12;;;;;;;5.90;5.20;;;15.40;99.90;;;;;;5135345;27;20207;-60
2022/05/10 02:38:40;;;;;;;9.23;5.50;;;15.40;99.90;;;;;;5135687;27;20665;-58
2022/05/10 02:41:13;;;;;;;5.97;5.37;;;15.40;99.90;;;;;;5135567;27;20283;-60
2022/05/10 02:43:47;;;;;;;5.90;5.30;;;15.40;99.90;;;;;;5135022;27;20199;-61
2022/05/10 02:46:15;;;;;;;6.00;5.47;;;15.40;99.90;;;;;;5135262;27;20203;-60
2022/05/10 02:48:43;;;;;;;6.93;6.23;;;15.30;99.90;;;;;;5135524;27;20207;-56
2022/05/10 02:51:09;;;;;;;8.73;5.63;;;15.20;99.90;;;;;;5135346;27;20287;-60
2022/05/10 02:53:36;;;;;;;7.97;6.47;;;15.10;99.90;;;;;;5135624;27;20267;-59
2022/05/10 02:56:06;;;;;;;8.80;6.03;;;15.00;99.90;;;;;;5135323;27;20252;-59
2022/05/10 02:58:36;;;;;;;12.33;6.40;;;14.90;99.90;;;;;;5135243;27;20202;-60
2022/05/10 03:01:10;;;;;;;6.93;6.33;;;14.90;99.90;;;;;;5135114;27;20219;-61
2022/05/10 03:03:38;;;;;;;9.10;6.10;;;14.90;99.90;;;;;;5135576;27;20214;-60
2022/05/10 03:06:05;;;;;;;7.93;6.50;;;14.90;99.90;;;;;;5135043;27;20266;-59
2022/05/10 03:08:32;;;;;;;7.23;6.00;;;14.90;99.90;;;;;;5135234;27;20254;-59
2022/05/10 03:10:59;;;;;;;6.50;5.80;;;14.90;99.90;;;;;;5134793;27;20230;-60
2022/05/10 03:13:25;;;;;;;6.47;5.80;;;14.90;99.90;;;;;;5135166;27;20202;-55
2022/05/10 03:15:52;;;;;;;8.17;6.00;;;14.90;99.90;;;;;;5134500;27;20203;-60
2022/05/10 03:18:19;;;;;;;7.00;5.67;;;14.90;99.90;;;;;;5135272;27;20202;-57
2022/05/10 03:20:47;;;;;;;7.83;5.33;;;14.80;99.90;;;;;;5134858;27;20813;-59
2022/05/10 03:23:14;;;;;;;7.13;5.50;;;14.90;99.90;;;;;;5134890;27;20673;-55
2022/05/10 03:25:41;;;;;;;7.23;6.10;;;14.90;99.90;;;;;;5134736;27;20247;-59
2022/05/10 03:28:08;;;;;;;6.33;5.73;;;14.90;99.90;;;;;;5134542;27;20207;-60
2022/05/10 03:30:35;;;;;;;6.97;5.97;;;14.90;99.90;;;;;;5134645;27;20779;-60
2022/05/10 03:33:02;;;;;;;6.17;5.60;;;14.80;99.90;;;;;;5134894;27;20203;-60
2022/05/10 03:35:28;;;;;;;7.63;6.40;;;14.80;99.90;;;;;;5134846;27;20263;-60
2022/05/10 03:37:56;;;;;;;8.23;6.37;;;14.80;99.90;;;;;;5134083;27;20300;-60
2022/05/10 03:40:23;;;;;;;8.13;6.03;;;14.80;99.90;;;;;;5134427;27;20307;-61
2022/05/10 03:42:53;;;;;;;7.83;6.00;;;14.80;99.90;;;;;;5134178;27;20207;-61
2022/05/10 03:45:22;;;;;;;9.10;6.40;;;14.80;99.90;;;;;;5134879;27;20239;-60
2022/05/10 03:47:50;;;;;;;8.13;6.13;;;14.80;99.90;;;;;;5134457;27;20248;-61
2022/05/10 03:50:20;;;;;;;7.03;6.23;;;14.80;99.90;;;;;;5133877;27;20222;-61
2022/05/10 03:52:47;;;;;;;8.23;6.37;;;14.80;99.90;;;;;;5134293;27;20731;-60
2022/05/10 03:55:17;;;;;;;7.77;6.50;;;14.80;99.90;;;;;;5133045;27;20737;-61
2022/05/10 03:57:44;;;;;;;7.53;6.33;;;14.80;99.90;;;;;;5133912;27;20214;-61
2022/05/10 04:00:16;;;;;;;7.63;6.07;;;14.80;99.90;;;;;;5133985;27;20225;-61
2022/05/10 04:02:43;;;;;;;8.13;6.37;;;14.80;99.90;;;;;;5134396;27;20214;-61
2022/05/10 04:05:11;;;;;;;8.53;6.03;;;14.80;99.90;;;;;;5134080;27;20207;-61
2022/05/10 04:07:38;;;;;;;7.93;5.73;;;14.90;99.90;;;;;;5133696;27;20203;-59
2022/05/10 04:10:08;;;;;;;7.50;5.63;;;15.00;99.90;;;;;;5134186;27;20221;-61
2022/05/10 04:12:36;;;;;;;8.63;5.37;;;15.00;99.90;;;;;;5133766;27;20577;-61
2022/05/10 04:15:03;;;;;;;10.53;5.80;;;15.10;99.90;;;;;;5133946;27;20206;-61
2022/05/10 04:17:30;;;;;;;9.37;6.17;;;15.20;99.90;;;;;;5133582;27;20199;-60
2022/05/10 04:19:56;;;;;;;5.70;5.13;;;15.20;99.90;;;;;;5133972;27;20229;-61
2022/05/10 04:22:23;;;;;;;7.53;5.83;;;15.30;99.90;;;;;;5133611;27;20214;-61
2022/05/10 04:24:50;;;;;;;7.60;5.10;;;15.30;99.90;;;;;;5133729;27;20206;-57
2022/05/10 04:27:17;;;;;;;8.70;5.80;;;15.40;99.90;;;;;;5133455;27;20217;-59
2022/05/10 04:29:45;;;;;;;7.07;5.90;;;15.40;99.90;;;;;;5133552;27;20199;-59
2022/05/10 04:32:12;;;;;;;8.10;6.17;;;15.40;99.90;;;;;;5133595;27;20299;-60
2022/05/10 04:34:38;;;;;;;10.50;5.70;;;15.40;99.90;;;;;;5133345;27;20228;-60
2022/05/10 04:37:05;;;;;;;6.20;5.60;;;15.40;99.90;;;;;;5133034;27;20199;-60
2022/05/10 04:42:13;;;;;;;6.53;5.87;;;15.40;99.90;;;;;;5132987;27;20267;-59
2022/05/10 04:44:39;;;;;;;8.50;6.37;;;15.40;99.90;;;;;;5133327;27;20205;-55
2022/05/10 04:47:08;;;;;;;6.27;5.67;;;15.40;99.90;;;;;;5132838;27;20251;-60
2022/05/10 04:49:35;;;;;;;9.17;5.33;;;15.40;99.90;;;;;;5133114;27;20203;-59
2022/05/10 04:52:03;;;;;;;7.20;5.80;;;15.40;99.90;;;;;;5132758;27;20223;-60
2022/05/10 04:54:29;;;;;;;9.40;6.30;;;15.50;99.90;;;;;;5131633;27;20211;-60
2022/05/10 04:56:56;;;;;;;6.73;5.30;;;15.50;99.90;;;;;;5131869;27;20880;-60
2022/05/10 04:59:23;;;;;;;8.10;5.63;;;15.50;99.90;;;;;;5132804;27;20689;-61
2022/05/10 05:01:50;;;;;;;6.60;5.73;;;15.50;99.90;;;;;;5132901;27;20275;-61
2022/05/10 05:04:18;;;;;;;7.13;5.73;;;15.50;99.90;;;;;;5132254;27;20215;-60
2022/05/10 05:06:45;;;;;;;8.50;6.20;;;15.50;99.90;;;;;;5132287;27;20211;-60
2022/05/10 05:09:11;;;;;;;6.77;5.20;;;15.60;99.90;;;;;;5132566;27;20206;-60
2022/05/10 05:11:39;;;;;;;6.07;5.47;;;15.60;99.90;;;;;;5132815;27;20279;-61
2022/05/10 05:14:07;;;;;;;7.60;6.03;;;15.70;99.90;;;;;;5132665;27;20294;-61
2022/05/10 05:16:34;;;;;;;7.17;5.73;;;15.70;99.90;;;;;;5132274;27;20228;-59
2022/05/10 05:19:00;;;;;;;10.67;6.07;;;15.80;99.90;;;;;;5133041;27;20260;-60
2022/05/10 05:21:28;;;;;;;6.90;6.17;;;15.80;99.90;;;;;;5131833;27;20254;-60
2022/05/10 05:23:55;;;;;;;7.23;6.13;;;15.80;99.90;;;;;;5132765;27;20207;-60
2022/05/10 05:26:22;;;;;;;8.27;6.00;;;15.80;99.90;;;;;;5131662;27;20335;-58
2022/05/10 05:28:48;;;;;;;7.57;5.80;;;15.80;99.90;;;;;;5132523;27;20203;-60
2022/05/10 05:31:17;;;;;;;6.57;5.83;;;15.90;99.90;;;;;;5132368;27;20784;-59
2022/05/10 05:33:44;;;;;;;7.73;6.07;;;15.90;99.90;;;;;;5132450;27;20199;-60
2022/05/10 05:36:10;;;;;;;10.60;6.17;;;15.90;99.90;;;;;;5129947;27;20191;-60
2022/05/10 05:38:38;;;;;;;8.77;5.53;;;15.90;99.90;;;;;;5108879;27;20208;-63
2022/05/10 05:41:05;;;;;;;6.97;5.90;;;16.00;99.90;;;;;;5125313;28;20230;-62
2022/05/10 05:43:32;;;;;;;7.47;5.93;;;16.00;99.90;;;;;;5131977;27;20202;-62
2022/05/10 05:45:59;;;;;;;6.30;5.70;;;16.00;99.90;;;;;;5131771;27;20207;-62
2022/05/10 05:48:26;;;;;;;7.60;6.03;;;16.00;99.90;;;;;;5132039;27;20207;-62
2022/05/10 05:50:52;;;;;;;7.60;5.97;;;16.00;99.90;;;;;;5131461;27;20271;-60
2022/05/10 05:53:19;;;;;;;8.83;6.40;;;16.00;99.90;;;;;;5132039;27;20260;-61
2022/05/10 05:55:48;;;;;;;7.67;6.30;;;16.00;99.90;;;;;;5131426;27;20263;-61
2022/05/10 05:58:15;;;;;;;7.03;6.00;;;16.10;99.90;;;;;;5131049;27;20230;-57
2022/05/10 06:00:42;;;;;;;9.90;5.77;;;16.10;99.90;;;;;;5131467;27;20287;-60
2022/05/10 06:03:09;;;;;;;6.87;6.00;;;16.20;99.90;;;;;;5131768;27;20256;-60
2022/05/10 06:05:36;;;;;;;6.80;6.10;;;16.20;99.90;;;;;;5131645;27;20298;-60
2022/05/10 06:08:06;;;;;;;7.13;6.17;;;16.30;99.90;;;;;;5131079;27;20248;-59
2022/05/10 06:10:32;;;;;;;7.80;6.20;;;16.40;99.90;;;;;;5131813;27;20634;-61
2022/05/10 06:13:03;;;;;;;8.37;6.27;;;16.50;99.90;;;;;;5131776;27;20617;-61
2022/05/10 06:15:31;;;;;;;6.93;6.00;;;16.60;99.90;;;;;;5131476;27;20214;-61
2022/05/10 06:17:58;;;;;;;6.80;6.10;;;16.80;99.90;;;;;;5132090;27;20342;-61
2022/05/10 06:20:25;;;;;;;6.30;5.70;;;17.00;99.90;;;;;;5134968;27;20238;-60
2022/05/10 06:22:51;;;;;;;9.07;6.13;;;17.30;99.90;;;;;;5135546;27;20207;-61
2022/05/10 06:25:20;;;;;;;8.57;5.87;;;17.50;99.90;;;;;;5134997;27;20199;-60
2022/05/10 06:27:48;;;;;;;9.50;6.60;;;17.70;99.90;;;;;;5134557;27;20263;-61
2022/05/10 06:30:17;;;;;;;7.60;5.73;;;17.90;99.90;;;;;;5135421;27;20223;-62
2022/05/10 06:32:43;;;;;;;7.90;6.03;;;17.90;99.90;;;;;;5135184;27;20264;-59
2022/05/10 06:35:11;;;;;;;7.63;5.60;;;18.10;99.90;;;;;;5134828;27;20228;-60
2022/05/10 06:40:22;;;;;;;6.77;6.07;;;18.20;99.90;;;;;;5134784;27;20830;-62
2022/05/10 06:42:49;;;;;;;7.57;5.70;;;18.30;99.90;;;;;;5135306;27;20236;-63
2022/05/10 06:45:19;;;;;;;8.53;6.17;;;18.40;99.90;;;;;;5134912;27;20236;-62
2022/05/10 06:47:49;;;;;;;9.70;5.80;;;18.50;99.90;;;;;;5134264;27;20211;-61
2022/05/10 06:50:19;;;;;;;8.03;5.93;;;18.60;99.90;;;;;;5134318;27;20227;-60
2022/05/10 06:52:46;;;;;;;6.83;5.70;;;18.70;99.90;;;;;;5135145;27;20232;-61
2022/05/10 06:55:13;;;;;;;7.50;6.23;;;18.70;99.90;;;;;;5135208;27;20210;-62
2022/05/10 06:57:40;;;;;;;7.33;6.43;;;18.70;99.90;;;;;;5133535;27;20602;-59
2022/05/10 07:00:08;;;;;;;8.17;6.47;;;18.80;99.90;;;;;;5134325;27;20677;-60
2022/05/10 07:02:37;;;;;;;9.53;5.97;;;18.90;99.90;;;;;;5134171;27;20256;-61
2022/05/10 07:05:05;;;;;;;10.07;5.90;;;19.10;99.90;;;;;;5134376;27;20251;-60
2022/05/10 07:07:31;;;;;;;7.87;5.80;;;19.30;99.90;;;;;;5133940;27;20604;-61
2022/05/10 07:09:58;;;;;;;8.80;6.00;;;19.30;99.90;;;;;;5134372;27;20251;-60
2022/05/10 07:12:25;;;;;;;6.63;5.90;;;19.40;99.90;;;;;;5134078;27;20263;-57
2022/05/10 07:14:51;;;;;;;7.00;5.40;;;19.40;99.90;;;;;;5134361;27;20202;-59
2022/05/10 07:17:19;;;;;;;9.43;5.50;;;19.50;99.90;;;;;;5133756;27;20199;-59
2022/05/10 07:19:47;;;;;;;8.80;6.13;;;19.60;99.90;;;;;;5133895;27;20217;-60
2022/05/10 07:22:14;;;;;;;9.67;5.67;;;19.70;99.90;;;;;;5133925;27;20701;-60
2022/05/10 07:24:41;;;;;;;7.57;5.60;;;19.90;99.90;;;;;;5134348;27;20669;-60
2022/05/10 07:27:08;;;;;;;8.37;5.60;;;20.00;99.90;;;;;;5133308;27;20211;-60
2022/05/10 07:29:34;;;;;;;6.00;5.40;;;20.20;99.90;;;;;;5133846;27;20207;-60
2022/05/10 07:32:01;;;;;;;6.73;5.20;;;20.30;99.90;;;;;;5133867;27;20244;-60
2022/05/10 07:34:28;;;;;;;8.27;4.97;;;20.40;99.90;;;;;;5133699;27;20848;-61
2022/05/10 07:36:56;;;;;;;8.83;5.10;;;20.60;99.90;;;;;;5134344;27;20203;-58
2022/05/10 07:39:24;;;;;;;7.87;5.63;;;20.70;99.90;;;;;;5133759;27;20215;-60
2022/05/10 07:41:53;;;;;;;6.07;5.03;;;20.70;99.90;;;;;;5133780;27;20226;-58
2022/05/10 07:44:21;;;;;;;7.80;5.40;;;20.80;99.90;;;;;;5133588;27;20226;-59
2022/05/10 07:46:47;;;;;;;7.60;4.90;;;21.00;99.90;;;;;;5133099;27;20203;-59
2022/05/10 07:49:14;;;;;;;7.20;5.57;;;21.20;99.90;;;;;;5133556;27;20260;-59
2022/05/10 07:51:41;;;;;;;5.60;5.10;;;21.30;99.90;;;;;;5133551;27;20268;-59
2022/05/10 07:54:09;;;;;;;10.60;5.40;;;21.30;99.90;;;;;;5133747;27;20263;-59
2022/05/10 07:56:37;;;;;;;6.43;5.07;;;21.50;99.90;;;;;;5132992;27;20198;-58
2022/05/10 07:59:03;;;;;;;6.70;5.50;;;21.70;99.90;;;;;;5133182;27;20209;-61
2022/05/10 08:01:30;;;;;;;7.27;5.10;;;21.60;99.90;;;;;;5133546;27;20692;-60
2022/05/10 08:03:57;;;;;;;9.80;5.20;;;21.80;99.90;;;;;;5133595;27;20207;-58
2022/05/10 08:06:24;;;;;;;4.93;4.27;;;22.00;99.90;;;;;;5133066;27;20251;-57
2022/05/10 08:08:51;;;;;;;7.43;4.70;;;22.20;99.90;;;;;;5133182;27;20579;-60
2022/05/10 08:11:20;;;;;;;10.97;4.53;;;22.40;99.90;;;;;;5133037;27;20777;-60
2022/05/10 08:13:48;;;;;;;6.20;4.10;;;22.50;99.90;;;;;;5132995;27;20763;-58
2022/05/10 08:16:15;;;;;;;8.30;4.67;;;22.60;99.90;;;;;;5132565;27;20203;-59
2022/05/10 08:18:45;;;;;;;7.00;4.47;;;22.70;99.90;;;;;;5132863;27;20207;-59
2022/05/10 08:21:13;;;;;;;8.30;4.40;;;22.70;99.90;;;;;;5132777;27;20602;-58
2022/05/10 08:23:40;;;;;;;10.13;4.67;;;22.70;99.90;;;;;;5132964;27;20267;-60
2022/05/10 08:26:07;;;;;;;5.97;4.43;;;22.70;99.90;;;;;;5132491;27;20648;-61
2022/05/10 08:28:37;;;;;;;6.67;4.53;;;22.90;99.90;;;;;;5132340;27;20210;-58
2022/05/10 08:31:05;;;;;;;5.17;4.30;;;23.10;99.90;;;;;;5133078;27;20248;-57
2022/05/10 08:33:34;;;;;;;4.83;4.33;;;23.10;99.90;;;;;;5132641;27;20198;-61
2022/05/10 08:36:01;;;;;;;7.37;4.70;;;23.10;99.90;;;;;;5132628;27;20264;-60
2022/05/10 08:38:30;;;;;;;6.63;4.00;;;23.10;99.90;;;;;;5132237;27;20199;-59
2022/05/10 08:41:00;;;;;;;5.70;4.03;;;23.10;99.90;;;;;;5131403;27;20230;-60
2022/05/10 08:43:32;;;;;;;5.33;4.33;;;23.20;99.90;;;;;;5132632;27;20695;-60
2022/05/10 08:46:02;;;;;;;6.33;4.03;;;23.30;99.90;;;;;;5132395;27;20203;-61
2022/05/10 08:48:31;;;;;;;5.83;3.70;;;23.40;99.90;;;;;;5132986;27;20259;-61
2022/05/10 08:50:58;;;;;;;4.37;3.90;;;23.20;99.90;;;;;;5133840;27;20279;-61
2022/05/10 08:53:25;;;;;;;4.27;3.77;;;23.30;99.90;;;;;;5133783;27;20210;-64
2022/05/10 08:55:57;;;;;;;4.57;3.70;;;23.40;99.90;;;;;;5133036;27;20203;-59
2022/05/10 08:58:47;;;;;;;5.03;3.93;;;23.60;99.90;;;;;;5131913;27;20203;-61
2022/05/10 09:01:20;;;;;;;4.67;3.87;;;23.60;99.90;;;;;;5132188;27;20600;-61
2022/05/10 09:03:54;;;;;;;4.63;4.03;;;23.70;99.90;;;;;;5131855;27;20207;-54
2022/05/10 09:06:28;;;;;;;6.47;4.17;;;23.60;99.90;;;;;;5132277;27;20289;-58
2022/05/10 09:09:07;;;;;;;6.23;3.97;;;23.60;99.90;;;;;;5132235;27;20646;-56
2022/05/10 09:11:43;;;;;;;5.43;3.50;;;23.70;99.90;;;;;;5132071;27;20279;-63
2022/05/10 09:14:12;;;;;;;5.43;3.63;;;23.60;99.90;;;;;;5132378;27;20209;-63
2022/05/10 09:16:41;;;;;;;6.00;4.20;;;23.90;99.90;;;;;;5131707;27;20198;-64
2022/05/10 09:19:12;;;;;;;8.33;4.17;;;23.70;99.90;;;;;;5132239;27;20205;-64
2022/05/10 09:21:47;;;;;;;8.73;4.20;;;23.90;99.90;;;;;;5132588;27;20752;-65
2022/05/10 09:24:22;;;;;;;7.27;4.17;;;24.00;99.90;;;;;;5132635;27;20668;-62
2022/05/10 09:26:53;;;;;;;5.60;3.90;;;24.00;99.90;;;;;;5131778;27;20668;-63
2022/05/10 09:29:30;;;;;;;4.10;3.70;;;23.80;99.90;;;;;;5131771;27;20207;-62
2022/05/10 09:34:54;;;;;;;4.90;3.67;;;24.00;99.90;;;;;;5132094;28;20205;-62
2022/05/10 09:37:25;;;;;;;4.57;3.87;;;24.30;99.90;;;;;;5132365;27;20210;-63
2022/05/10 09:40:08;;;;;;;7.87;4.30;;;24.40;99.90;;;;;;5131813;27;20211;-63
2022/05/10 09:42:37;;;;;;;6.03;4.00;;;24.70;99.90;;;;;;5132082;27;20218;-63
2022/05/10 09:45:07;;;;;;;8.50;4.20;;;24.90;99.90;;;;;;5132788;27;20199;-61
2022/05/10 09:47:36;;;;;;;5.63;4.03;;;25.00;99.90;;;;;;5131260;27;20203;-62
2022/05/10 09:50:17;;;;;;;6.83;4.30;;;24.80;99.90;;;;;;5131617;27;20310;-62
2022/05/10 09:52:44;;;;;;;5.10;4.17;;;24.90;99.90;;;;;;5133931;27;20305;-61
2022/05/10 09:55:24;;;;;;;6.00;4.07;;;24.70;99.90;;;;;;5136062;27;20226;-66
2022/05/10 09:57:51;;;;;;;9.40;3.77;;;24.60;99.90;;;;;;5134812;27;20214;-63
2022/05/10 10:00:39;;;;;;;4.40;3.70;;;24.80;99.90;;;;;;5135619;27;20728;-61
2022/05/10 10:03:07;;;;;;;8.80;4.10;;;24.70;99.90;;;;;;5135435;27;20792;-61
2022/05/10 10:05:37;;;;;;;5.80;3.70;;;24.90;99.90;;;;;;5135712;27;20232;-64
2022/05/10 10:08:04;;;;;;;8.13;3.90;;;24.90;99.90;;;;;;5135283;27;20203;-62
2022/05/10 10:10:32;;;;;;;5.57;3.87;;;25.10;99.90;;;;;;5134954;27;21070;-62
2022/05/10 10:13:00;;;;;;;7.50;3.70;;;25.20;99.90;;;;;;5136017;27;20203;-64
2022/05/10 10:15:41;;;;;;;6.83;3.67;;;25.30;99.90;;;;;;5135176;27;20605;-63
2022/05/10 10:18:12;;;;;;;6.67;3.73;;;25.50;99.90;;;;;;5134903;27;20294;-63
2022/05/10 10:20:44;;;;;;;4.00;3.60;;;25.60;99.90;;;;;;5134882;27;20234;-63
2022/05/10 10:23:21;;;;;;;7.03;3.97;;;25.50;99.90;;;;;;5135678;27;20226;-62
2022/05/10 10:25:50;;;;;;;6.63;3.73;;;25.70;99.90;;;;;;5135351;27;20206;-58
2022/05/10 10:28:25;;;;;;;5.07;4.30;;;25.50;99.90;;;;;;5134696;27;20210;-65
2022/05/10 10:30:56;;;;;;;5.53;4.03;;;25.40;99.90;;;;;;5135082;27;20713;-63
2022/05/10 10:33:34;;;;;;;13.13;6.07;;;25.00;99.90;;;;;;5134889;27;20203;-63
2022/05/10 10:36:05;;;;;;;8.63;4.63;;;24.80;99.90;;;;;;5135094;27;20264;-63
2022/05/10 10:38:44;;;;;;;6.73;4.77;;;24.80;99.90;;;;;;5134737;27;20261;-63
2022/05/10 10:41:13;;;;;;;7.07;4.60;;;25.00;99.90;;;;;;5134789;27;20272;-63
2022/05/10 10:43:46;;;;;;;5.77;4.43;;;25.20;99.90;;;;;;5134365;27;20259;-62
2022/05/10 10:46:23;;;;;;;4.70;4.20;;;25.10;99.90;;;;;;5134585;27;20259;-63
2022/05/10 10:48:55;;;;;;;7.83;4.40;;;25.40;99.90;;;;;;5134666;27;20742;-63
2022/05/10 10:51:27;;;;;;;7.63;4.40;;;25.30;99.90;;;;;;5134550;27;20346;-63
2022/05/10 10:53:54;;;;;;;7.23;4.40;;;25.40;99.90;;;;;;5134902;27;20205;-63
2022/05/10 10:56:43;;;;;;;10.93;4.67;;;25.20;99.90;;;;;;5133861;27;20253;-64
2022/05/10 10:59:34;;;;;;;5.37;4.50;;;25.20;99.90;;;;;;5134819;27;20219;-63
2022/05/10 11:02:17;;;;;;;7.10;4.50;;;25.30;99.90;;;;;;5134869;27;20249;-63
2022/05/10 11:05:07;;;;;;;6.30;3.87;;;25.20;99.90;;;;;;5134261;27;20613;-64
2022/05/10 11:07:40;;;;;;;8.13;4.27;;;25.30;99.90;;;;;;5133938;27;20258;-62
2022/05/10 11:10:12;;;;;;;8.50;4.60;;;25.40;99.90;;;;;;5134641;27;20260;-63
2022/05/10 11:12:52;;;;;;;4.93;3.47;;;25.20;99.90;;;;;;5134733;27;20269;-62
2022/05/10 11:15:35;;;;;;;4.90;3.10;;;25.30;99.90;;;;;;5134439;27;20210;-62
2022/05/10 11:18:19;;;;;;;4.73;3.60;;;25.20;99.90;;;;;;5134181;27;20628;-63
2022/05/10 11:20:55;;;;;;;7.07;3.43;;;25.20;99.90;;;;;;5133580;27;20735;-62
2022/05/10 11:23:32;;;;;;;7.50;3.40;;;25.00;99.90;;;;;;5134491;27;20661;-63
2022/05/10 11:26:10;;;;;;;7.40;3.30;;;25.00;99.90;;;;;;5134022;27;20238;-64
2022/05/10 11:29:08;;;;;;;4.93;3.23;;;24.90;99.90;;;;;;5134273;27;20202;-64
2022/05/10 11:32:04;;;;;;;6.17;3.50;;;25.10;99.90;;;;;;5110887;27;20223;-63
2022/05/10 11:34:50;;;;;;;3.53;3.10;;;25.00;99.90;;;;;;5133912;27;20737;-63
2022/05/10 11:37:26;;;;;;;6.23;3.37;;;25.10;99.90;;;;;;5133620;27;20707;-65
2022/05/10 11:40:14;;;;;;;5.33;3.10;;;25.20;99.90;;;;;;5133085;27;20660;-63
2022/05/10 11:42:57;;;;;;;4.73;3.60;;;25.10;99.90;;;;;;5134086;27;20660;-64
2022/05/10 11:45:59;;;;;;;3.67;2.63;;;25.00;99.90;;;;;;5133717;27;20203;-63
2022/05/10 11:48:55;;;;;;;4.83;3.23;;;25.10;99.90;;;;;;5133565;27;20241;-64
2022/05/10 11:51:49;;;;;;;4.97;3.50;;;25.30;99.90;;;;;;5133345;27;20271;-63
2022/05/10 11:54:45;;;;;;;9.63;3.87;;;25.60;99.90;;;;;;5133812;27;20199;-63
2022/05/10 11:57:14;;;;;;;8.17;3.87;;;25.70;99.90;;;;;;5132989;27;20577;-63
2022/05/10 11:59:43;;;;;;;7.83;3.10;;;25.80;99.90;;;;;;5133429;27;20631;-62
2022/05/10 12:02:47;;;;;;;5.50;2.97;;;25.80;99.90;;;;;;5133129;27;20230;-63
2022/05/10 12:05:27;;;;;;;7.10;3.27;;;25.70;99.90;;;;;;5133486;27;20334;-61
2022/05/10 12:07:55;;;;;;;3.60;3.30;;;25.50;99.90;;;;;;5132526;27;20291;-61
2022/05/10 12:10:35;;;;;;;6.63;3.10;;;25.50;99.90;;;;;;5133403;27;20230;-62
2022/05/10 12:13:07;;;;;;;4.00;2.90;;;25.50;99.90;;;;;;5133220;27;20210;-61
2022/05/10 12:21:22;;;;;;;5.73;3.13;;;26.00;99.90;;;;;;5132956;27;20696;-62
2022/05/10 12:24:12;;;;;;;3.60;3.27;;;26.10;99.90;;;;;;5132971;27;20235;-62
2022/05/10 12:26:45;;;;;;;5.53;3.30;;;26.20;99.90;;;;;;5132487;27;20290;-62
2022/05/10 12:29:36;;;;;;;5.33;2.90;;;26.10;99.90;;;;;;5133034;27;20206;-62
2022/05/10 12:32:05;;;;;;;4.67;3.33;;;26.00;99.90;;;;;;5132395;27;20237;-61
2022/05/10 12:34:52;;;;;;;5.67;3.20;;;26.20;99.90;;;;;;5133049;27;20207;-61
2022/05/10 12:37:59;;;;;;;5.60;3.60;;;26.30;99.90;;;;;;5132261;27;20213;-62
2022/05/10 12:41:11;;;;;;;6.93;3.10;;;26.30;99.90;;;;;;5132821;27;20229;-61
2022/05/10 12:44:08;;;;;;;5.03;2.70;;;26.40;99.90;;;;;;5132086;27;20252;-61
2022/05/10 12:46:47;;;;;;;6.23;3.20;;;26.40;99.90;;;;;;5132467;27;20207;-62
2022/05/10 12:49:27;;;;;;;4.97;3.07;;;26.30;99.90;;;;;;5132213;27;20738;-62
2022/05/10 12:52:12;;;;;;;8.13;3.20;;;26.20;99.90;;;;;;5132485;27;20285;-61
2022/05/10 12:54:42;;;;;;;5.90;3.13;;;26.40;99.90;;;;;;5132466;27;20701;-61
2022/05/10 12:57:13;;;;;;;5.47;3.50;;;26.70;99.90;;;;;;5131757;27;20293;-62
2022/05/10 12:59:54;;;;;;;7.60;3.43;;;26.70;99.90;;;;;;5132266;27;20290;-63
2022/05/10 13:02:22;;;;;;;6.23;3.67;;;26.50;99.90;;;;;;5131913;27;20231;-62
2022/05/10 13:04:53;;;;;;;4.17;3.20;;;26.40;99.90;;;;;;5132438;27;20581;-62
2022/05/10 13:07:37;;;;;;;6.27;3.57;;;26.40;99.90;;;;;;5131731;27;20199;-61
2022/05/10 13:10:08;;;;;;;4.57;3.20;;;26.60;99.90;;;;;;5132456;27;20293;-62
2022/05/10 13:12:37;;;;;;;4.53;3.47;;;26.70;99.90;;;;;;5132162;27;20211;-61
2022/05/10 13:15:13;;;;;;;6.23;3.40;;;26.60;99.90;;;;;;5132246;27;20210;-62
2022/05/10 13:17:44;;;;;;;4.90;3.43;;;26.30;99.90;;;;;;5131486;27;20210;-62
2022/05/10 13:20:13;;;;;;;8.77;3.57;;;26.00;99.90;;;;;;5131475;27;20323;-62
2022/05/10 13:22:50;;;;;;;4.17;3.30;;;25.90;99.90;;;;;;5131859;27;20219;-62
2022/05/10 13:25:25;;;;;;;5.87;3.50;;;25.90;99.90;;;;;;5131498;27;20703;-61